Time;durP1;ratioP1;P1;durP2;ratioP2;P2;SDS_P1;SDS_P2;PMS_P1;PMS_P2;Temp;Humidity;BMP_temperature;BMP_pressure;BME280_temperature;BME280_humidity;BME280_pressure;Samples;Min_cycle;Max_cycle;Signal;HPM_P1;HPM_P2
2021/01/24 00:00:48;;;;;;;21.38;2.83;;;12.50;96.70;;;;;;5057385;28;20470;-72
2021/01/24 00:03:16;;;;;;;11.25;2.33;;;12.50;96.70;;;;;;5064825;28;20047;-72
2021/01/24 00:05:44;;;;;;;14.70;2.97;;;12.50;96.70;;;;;;5070437;28;20064;-72
2021/01/24 00:08:12;;;;;;;13.98;3.50;;;12.50;96.70;;;;;;5070169;28;24372;-72
2021/01/24 00:10:40;;;;;;;17.10;2.83;;;12.40;96.70;;;;;;5072106;28;20047;-72
2021/01/24 00:13:08;;;;;;;12.25;2.53;;;12.50;96.70;;;;;;5065209;28;20032;-72
2021/01/24 00:15:36;;;;;;;11.88;2.30;;;12.50;96.70;;;;;;5067613;28;20040;-72
2021/01/24 00:18:03;;;;;;;19.38;3.17;;;12.40;96.70;;;;;;5070903;28;20043;-72
2021/01/24 00:20:31;;;;;;;17.33;2.95;;;12.50;96.70;;;;;;5074751;28;20040;-72
2021/01/24 00:22:59;;;;;;;11.23;2.53;;;12.40;96.70;;;;;;5070991;28;20114;-72
2021/01/24 00:25:26;;;;;;;25.33;3.70;;;12.50;96.70;;;;;;5071233;28;20036;-73
2021/01/24 00:27:54;;;;;;;18.48;3.03;;;12.40;96.70;;;;;;5067713;28;20043;-72
2021/01/24 00:30:22;;;;;;;12.75;3.08;;;12.40;96.70;;;;;;5068499;28;20419;-72
2021/01/24 00:32:50;;;;;;;18.23;3.22;;;12.40;96.70;;;;;;5066133;28;20063;-72
2021/01/24 00:35:18;;;;;;;15.40;3.40;;;12.40;96.70;;;;;;5064852;28;20046;-72
2021/01/24 00:37:45;;;;;;;15.23;3.67;;;12.40;96.70;;;;;;5060011;28;20059;-72
2021/01/24 00:40:13;;;;;;;17.30;3.22;;;12.40;96.70;;;;;;5073868;28;20507;-72
2021/01/24 00:42:40;;;;;;;14.35;3.05;;;12.40;96.70;;;;;;5068820;28;20127;-72
2021/01/24 00:45:09;;;;;;;15.65;2.72;;;12.40;96.70;;;;;;5070148;28;20105;-72
2021/01/24 00:47:37;;;;;;;15.88;3.33;;;12.40;96.70;;;;;;5067589;28;20121;-72
2021/01/24 00:50:06;;;;;;;18.92;2.90;;;12.40;96.70;;;;;;5065335;28;20051;-72
2021/01/24 00:52:33;;;;;;;16.05;2.85;;;12.40;96.70;;;;;;5069299;28;20130;-72
2021/01/24 00:55:00;;;;;;;17.50;3.00;;;12.40;96.70;;;;;;5066160;28;20549;-72
2021/01/24 00:57:28;;;;;;;16.63;3.22;;;12.40;96.70;;;;;;5066782;28;20040;-72
2021/01/24 00:59:56;;;;;;;13.60;2.60;;;12.40;96.70;;;;;;5071618;28;20091;-72
2021/01/24 01:02:23;;;;;;;14.35;3.03;;;12.40;96.70;;;;;;5051390;28;20517;-72
2021/01/24 01:04:51;;;;;;;15.98;3.55;;;12.40;96.70;;;;;;5054661;28;20130;-72
2021/01/24 01:07:18;;;;;;;14.02;2.60;;;12.30;96.70;;;;;;5071435;28;20166;-72
2021/01/24 01:09:46;;;;;;;17.15;2.97;;;12.40;96.70;;;;;;5068843;28;20165;-72
2021/01/24 01:12:13;;;;;;;15.35;2.65;;;12.40;96.70;;;;;;5069309;28;20040;-72
2021/01/24 01:14:40;;;;;;;14.98;2.63;;;12.40;96.70;;;;;;5067012;28;20397;-72
2021/01/24 01:17:07;;;;;;;13.05;3.40;;;12.40;96.70;;;;;;5069536;28;20520;-72
2021/01/24 01:19:35;;;;;;;15.45;2.60;;;12.40;96.70;;;;;;5072340;28;20513;-72
2021/01/24 01:22:03;;;;;;;13.20;2.17;;;12.40;96.70;;;;;;5067800;28;20044;-72
2021/01/24 01:24:30;;;;;;;12.02;2.67;;;12.40;96.70;;;;;;5071953;28;20040;-72
2021/01/24 01:26:58;;;;;;;16.35;2.97;;;12.40;96.70;;;;;;5069616;28;20043;-72
2021/01/24 01:29:25;;;;;;;14.90;2.60;;;12.40;96.70;;;;;;5072437;28;20044;-72
2021/01/24 01:31:53;;;;;;;13.55;2.15;;;12.40;96.70;;;;;;5072513;28;20121;-72
2021/01/24 01:34:20;;;;;;;11.45;2.30;;;12.40;96.70;;;;;;5073548;28;20113;-72
2021/01/24 01:36:47;;;;;;;11.18;2.38;;;12.40;96.70;;;;;;5073273;28;20047;-70
2021/01/24 01:39:16;;;;;;;13.13;2.70;;;12.40;96.70;;;;;;5070789;28;20200;-70
2021/01/24 01:41:43;;;;;;;13.90;2.58;;;12.40;96.70;;;;;;5070590;28;20040;-71
2021/01/24 01:44:10;;;;;;;11.35;2.72;;;12.40;96.70;;;;;;5072430;28;20044;-71
2021/01/24 01:46:39;;;;;;;14.00;3.17;;;12.40;96.70;;;;;;5070942;28;20041;-71
2021/01/24 01:49:07;;;;;;;14.70;2.67;;;12.40;96.70;;;;;;5070933;28;20052;-71
2021/01/24 01:51:35;;;;;;;10.18;1.90;;;12.40;96.70;;;;;;5073237;28;20509;-71
2021/01/24 01:54:02;;;;;;;14.77;2.65;;;12.40;96.70;;;;;;5072561;28;20086;-71
2021/01/24 01:56:30;;;;;;;15.15;1.90;;;12.40;96.70;;;;;;5069286;28;20098;-71
2021/01/24 01:58:57;;;;;;;18.65;3.05;;;12.40;96.70;;;;;;5071862;28;20098;-71
2021/01/24 02:01:33;;;;;;;16.33;3.10;;;12.40;96.70;;;;;;5055931;28;20186;-71
2021/01/24 02:04:10;;;;;;;9.68;2.63;;;12.40;96.70;;;;;;5067709;28;20035;-71
2021/01/24 02:06:42;;;;;;;12.93;2.28;;;12.30;96.70;;;;;;5070268;28;20036;-71
2021/01/24 02:09:19;;;;;;;10.25;2.13;;;12.40;96.70;;;;;;5069329;28;20036;-71
2021/01/24 02:11:55;;;;;;;13.57;1.92;;;12.40;96.70;;;;;;5072231;28;20040;-71
2021/01/24 02:14:28;;;;;;;19.67;2.55;;;12.40;96.70;;;;;;5071505;28;20047;-70
2021/01/24 02:17:00;;;;;;;12.75;2.47;;;12.40;96.70;;;;;;5075077;28;20040;-71
2021/01/24 02:19:42;;;;;;;10.30;2.15;;;12.30;96.70;;;;;;5070862;28;20493;-71
2021/01/24 02:22:12;;;;;;;15.75;2.45;;;12.30;96.70;;;;;;5067396;28;20242;-72
2021/01/24 02:24:47;;;;;;;8.50;2.00;;;12.30;96.70;;;;;;5085070;28;20497;-70
2021/01/24 02:27:20;;;;;;;13.68;3.15;;;12.30;96.70;;;;;;5072269;28;20777;-71
2021/01/24 02:29:58;;;;;;;15.00;2.70;;;12.20;96.70;;;;;;5072375;28;20040;-71
2021/01/24 02:32:27;;;;;;;18.67;2.42;;;12.20;96.70;;;;;;5076272;28;20070;-71
2021/01/24 02:34:57;;;;;;;10.20;2.13;;;12.20;96.70;;;;;;5071131;28;20041;-71
2021/01/24 02:37:25;;;;;;;13.48;2.20;;;12.10;96.70;;;;;;5070795;28;20534;-70
2021/01/24 02:39:53;;;;;;;17.73;3.05;;;12.10;96.70;;;;;;5074948;28;20532;-71
2021/01/24 02:42:21;;;;;;;16.30;3.33;;;12.00;96.70;;;;;;5069727;28;20142;-70
2021/01/24 02:44:49;;;;;;;9.30;2.15;;;12.10;96.70;;;;;;5072620;28;20059;-70
2021/01/24 02:47:16;;;;;;;17.40;2.40;;;12.10;96.70;;;;;;5068867;28;20044;-71
2021/01/24 02:49:48;;;;;;;14.98;2.78;;;12.10;96.70;;;;;;5068715;28;20060;-70
2021/01/24 02:52:16;;;;;;;14.52;2.55;;;12.10;96.70;;;;;;5066083;28;20056;-70
2021/01/24 02:54:45;;;;;;;13.00;2.47;;;12.10;96.70;;;;;;5071395;28;20064;-70
2021/01/24 02:57:13;;;;;;;14.80;2.47;;;12.20;96.70;;;;;;5067362;28;20047;-70
2021/01/24 02:59:41;;;;;;;20.38;2.95;;;12.20;96.70;;;;;;5068480;28;20131;-71
2021/01/24 03:02:09;;;;;;;21.98;3.17;;;12.10;96.70;;;;;;5066912;28;20047;-70
2021/01/24 03:04:37;;;;;;;18.05;3.03;;;12.20;96.70;;;;;;5072034;28;20122;-71
2021/01/24 03:07:05;;;;;;;14.20;2.40;;;12.20;96.70;;;;;;5071336;28;20130;-71
2021/01/24 03:09:32;;;;;;;21.70;3.00;;;12.10;96.70;;;;;;5074351;28;20143;-70
2021/01/24 03:12:04;;;;;;;14.65;2.70;;;12.10;96.70;;;;;;5078483;28;20040;-72
2021/01/24 03:14:34;;;;;;;13.38;3.15;;;12.10;96.70;;;;;;5074235;28;20054;-70
2021/01/24 03:17:03;;;;;;;14.57;2.30;;;12.10;96.70;;;;;;5068544;28;20547;-70
2021/01/24 03:19:31;;;;;;;13.27;2.95;;;12.10;96.70;;;;;;5075368;28;20073;-70
2021/01/24 03:22:00;;;;;;;14.60;2.97;;;12.10;96.70;;;;;;5067953;28;20387;-71
2021/01/24 03:24:30;;;;;;;15.27;3.10;;;12.10;96.70;;;;;;5069201;28;20032;-70
2021/01/24 03:26:58;;;;;;;14.68;2.45;;;12.10;96.70;;;;;;5072009;28;20040;-70
2021/01/24 03:29:25;;;;;;;10.40;2.05;;;12.10;96.70;;;;;;5074078;28;20052;-71
2021/01/24 03:31:52;;;;;;;10.35;2.03;;;12.00;96.70;;;;;;5072736;28;20123;-71
2021/01/24 03:34:21;;;;;;;11.45;2.05;;;12.00;96.70;;;;;;5071313;28;20044;-70
2021/01/24 03:36:49;;;;;;;15.00;2.10;;;12.00;96.70;;;;;;5067125;28;20036;-70
2021/01/24 03:39:17;;;;;;;15.40;1.92;;;12.00;96.70;;;;;;5071481;28;20044;-71
2021/01/24 03:41:45;;;;;;;9.30;2.00;;;12.00;96.70;;;;;;5069701;28;20044;-70
2021/01/24 03:44:13;;;;;;;7.32;1.77;;;12.00;96.70;;;;;;5070143;28;20032;-71
2021/01/24 03:46:40;;;;;;;9.65;1.27;;;12.00;96.70;;;;;;5069883;28;20032;-71
2021/01/24 03:49:08;;;;;;;8.25;1.58;;;12.00;96.70;;;;;;5065573;28;20413;-71
2021/01/24 03:51:44;;;;;;;11.00;2.20;;;12.00;96.70;;;;;;5071535;28;20040;-70
2021/01/24 03:54:11;;;;;;;10.45;1.65;;;12.00;96.70;;;;;;5073115;28;20036;-70
2021/01/24 03:56:39;;;;;;;13.35;2.53;;;12.00;96.70;;;;;;5072851;28;20047;-70
2021/01/24 03:59:07;;;;;;;7.90;1.30;;;12.00;96.70;;;;;;5068124;28;20069;-71
2021/01/24 04:01:34;;;;;;;8.68;1.52;;;11.90;96.70;;;;;;5054869;28;21291;-70
2021/01/24 04:04:02;;;;;;;6.45;1.40;;;11.90;96.70;;;;;;5077888;28;20032;-70
2021/01/24 04:06:29;;;;;;;7.43;1.20;;;11.80;96.70;;;;;;5068260;28;20052;-70
2021/01/24 04:08:56;;;;;;;5.20;1.17;;;11.80;96.70;;;;;;5065239;28;20040;-70
2021/01/24 04:11:23;;;;;;;5.05;1.05;;;11.70;96.70;;;;;;5070919;28;20050;-71
2021/01/24 04:13:50;;;;;;;6.82;1.58;;;11.60;96.70;;;;;;5067220;28;20047;-71
2021/01/24 04:16:18;;;;;;;6.43;1.23;;;11.50;96.70;;;;;;5087834;28;20056;-71
2021/01/24 04:18:46;;;;;;;9.02;1.92;;;11.40;96.70;;;;;;5066231;28;20044;-71
2021/01/24 04:21:13;;;;;;;13.13;1.98;;;11.40;96.70;;;;;;5072427;28;20036;-70
2021/01/24 04:23:40;;;;;;;8.10;1.75;;;11.20;96.70;;;;;;5063083;28;20625;-70
2021/01/24 04:26:07;;;;;;;8.60;1.58;;;11.10;96.70;;;;;;5074933;28;20044;-71
2021/01/24 04:28:34;;;;;;;13.85;2.22;;;11.00;96.70;;;;;;5064279;28;20040;-71
2021/01/24 04:31:01;;;;;;;8.23;1.83;;;10.90;96.70;;;;;;5066257;28;20409;-71
2021/01/24 04:33:29;;;;;;;7.45;2.10;;;10.90;96.70;;;;;;5049561;28;20445;-70
2021/01/24 04:35:56;;;;;;;9.32;1.60;;;10.80;96.70;;;;;;5052617;28;20122;-70
2021/01/24 04:38:24;;;;;;;10.60;1.90;;;10.80;96.70;;;;;;5071196;28;20453;-70
2021/01/24 04:40:51;;;;;;;10.77;2.40;;;10.70;96.70;;;;;;5073260;28;20032;-70
2021/01/24 04:43:18;;;;;;;11.68;1.92;;;10.70;96.70;;;;;;5068923;28;20048;-70
2021/01/24 04:45:45;;;;;;;8.43;1.73;;;10.70;96.70;;;;;;5058395;28;20062;-70
2021/01/24 04:48:13;;;;;;;12.30;1.85;;;10.60;96.70;;;;;;5074030;28;20028;-70
2021/01/24 04:50:42;;;;;;;7.50;1.80;;;10.60;96.70;;;;;;5071923;28;20122;-71
2021/01/24 04:53:09;;;;;;;9.38;1.85;;;10.60;96.70;;;;;;5072300;28;20444;-70
2021/01/24 04:55:37;;;;;;;11.15;1.70;;;10.60;96.70;;;;;;5068898;28;20761;-71
2021/01/24 04:58:05;;;;;;;6.70;1.33;;;10.50;96.70;;;;;;5070823;28;20043;-70
2021/01/24 05:00:34;;;;;;;7.30;1.10;;;10.50;96.70;;;;;;5065938;28;20529;-70
2021/01/24 05:03:01;;;;;;;6.22;1.35;;;10.50;96.70;;;;;;5066661;28;20029;-71
2021/01/24 05:05:29;;;;;;;6.35;1.17;;;10.50;96.70;;;;;;5068857;28;20135;-71
2021/01/24 05:07:58;;;;;;;6.53;1.25;;;10.40;96.70;;;;;;5072627;28;20041;-70
2021/01/24 05:10:27;;;;;;;6.38;0.93;;;10.40;96.70;;;;;;5069804;28;20413;-70
2021/01/24 05:12:55;;;;;;;5.20;1.00;;;10.30;96.70;;;;;;5064571;28;20765;-71
2021/01/24 05:15:23;;;;;;;8.40;1.60;;;10.30;96.70;;;;;;5064187;28;20391;-70
2021/01/24 05:17:52;;;;;;;3.97;1.10;;;10.20;96.70;;;;;;5063582;28;20039;-71
2021/01/24 05:20:22;;;;;;;3.17;0.60;;;10.20;96.70;;;;;;5069012;28;20510;-71
2021/01/24 05:22:49;;;;;;;1.65;0.55;;;10.20;96.70;;;;;;5068085;28;20072;-71
2021/01/24 05:25:19;;;;;;;3.42;0.50;;;10.10;96.70;;;;;;5067343;28;20385;-70
2021/01/24 05:27:47;;;;;;;2.53;0.50;;;10.10;96.70;;;;;;5065106;28;20459;-70
2021/01/24 05:30:21;;;;;;;8.95;4.68;;;10.00;96.70;;;;;;5069749;28;20037;-70
2021/01/24 05:32:51;;;;;;;6.80;3.05;;;10.00;96.70;;;;;;5068523;28;20902;-70
2021/01/24 05:35:19;;;;;;;9.68;4.57;;;10.00;96.70;;;;;;5053836;28;20049;-70
2021/01/24 05:37:47;;;;;;;7.47;3.75;;;10.10;96.70;;;;;;5073635;28;20044;-70
2021/01/24 05:40:14;;;;;;;7.35;4.07;;;10.30;96.70;;;;;;5071884;28;20158;-70
2021/01/24 05:42:45;;;;;;;5.25;2.75;;;10.50;96.70;;;;;;5068020;28;20040;-70
2021/01/24 05:45:13;;;;;;;5.82;2.40;;;10.60;96.70;;;;;;5066594;28;20057;-70
2021/01/24 05:47:42;;;;;;;4.38;1.77;;;10.60;96.70;;;;;;5053216;28;20105;-70
2021/01/24 05:50:11;;;;;;;4.55;1.40;;;10.70;96.70;;;;;;5050792;28;20110;-70
2021/01/24 05:52:40;;;;;;;1.77;0.50;;;10.70;96.70;;;;;;5066443;28;20047;-70
2021/01/24 05:55:09;;;;;;;2.65;0.47;;;10.70;96.70;;;;;;5070828;28;20035;-70
2021/01/24 05:57:37;;;;;;;3.88;0.40;;;10.60;96.70;;;;;;5070718;28;20041;-71
2021/01/24 06:00:07;;;;;;;3.67;0.63;;;10.70;96.70;;;;;;5068073;28;20417;-70
2021/01/24 06:02:35;;;;;;;2.50;1.10;;;10.70;96.70;;;;;;5067347;28;20043;-70
2021/01/24 06:05:04;;;;;;;2.17;0.60;;;10.80;96.70;;;;;;5065696;28;20226;-70
2021/01/24 06:07:33;;;;;;;1.88;0.52;;;10.80;96.70;;;;;;5071491;28;20043;-71
2021/01/24 06:10:01;;;;;;;2.22;0.50;;;10.80;96.70;;;;;;5070107;28;20106;-71
2021/01/24 06:12:29;;;;;;;2.58;0.57;;;10.80;96.70;;;;;;5071124;28;20367;-70
2021/01/24 06:15:00;;;;;;;2.38;0.45;;;10.80;96.70;;;;;;5068020;28;20411;-70
2021/01/24 06:17:31;;;;;;;1.83;0.50;;;10.80;96.70;;;;;;5073780;28;20147;-70
2021/01/24 06:20:01;;;;;;;3.67;1.05;;;10.80;96.70;;;;;;5070725;28;20406;-70
2021/01/24 06:22:34;;;;;;;4.50;0.70;;;10.80;96.70;;;;;;5074198;28;20492;-70
2021/01/24 06:25:09;;;;;;;0.93;0.30;;;10.80;96.70;;;;;;5077163;28;20044;-70
2021/01/24 06:27:42;;;;;;;1.75;0.30;;;10.80;96.70;;;;;;5053006;28;20543;-71
2021/01/24 06:30:14;;;;;;;2.17;0.60;;;10.80;96.70;;;;;;5069807;28;20048;-70
2021/01/24 06:32:42;;;;;;;2.20;0.60;;;10.80;96.70;;;;;;5075628;28;20055;-70
2021/01/24 06:35:15;;;;;;;2.60;0.50;;;10.80;96.70;;;;;;5082176;28;20389;-70
2021/01/24 06:37:51;;;;;;;3.50;0.70;;;10.80;96.70;;;;;;5071747;28;20040;-70
2021/01/24 06:40:21;;;;;;;1.05;0.40;;;10.80;96.70;;;;;;5080991;28;20097;-70
2021/01/24 06:42:53;;;;;;;2.22;0.50;;;10.80;96.70;;;;;;5061896;28;20036;-70
2021/01/24 06:45:37;;;;;;;1.92;0.60;;;10.80;96.70;;;;;;5072488;28;20048;-71
2021/01/24 06:48:06;;;;;;;2.67;0.75;;;10.90;96.70;;;;;;5069436;28;20120;-72
2021/01/24 06:50:38;;;;;;;3.20;0.80;;;10.90;96.70;;;;;;5070625;28;20036;-71
2021/01/24 06:53:06;;;;;;;4.05;1.00;;;10.90;96.70;;;;;;5068304;28;20119;-72
2021/01/24 06:55:38;;;;;;;4.60;1.17;;;10.80;96.70;;;;;;5074838;28;20054;-70
2021/01/24 06:58:21;;;;;;;5.80;1.73;;;10.90;96.70;;;;;;5067329;28;20040;-71
2021/01/24 07:00:48;;;;;;;2.17;0.80;;;10.70;96.70;;;;;;5076357;28;20528;-71
2021/01/24 07:03:18;;;;;;;1.55;0.40;;;10.50;96.70;;;;;;5069345;28;20131;-70
2021/01/24 07:05:46;;;;;;;1.25;0.30;;;10.50;96.70;;;;;;5068818;28;20036;-70
2021/01/24 07:08:28;;;;;;;2.47;0.40;;;10.40;96.70;;;;;;5077348;28;20097;-70
2021/01/24 07:10:56;;;;;;;2.65;0.40;;;10.30;96.70;;;;;;5073128;28;20068;-70
2021/01/24 07:13:33;;;;;;;1.00;0.20;;;10.30;96.70;;;;;;5073485;28;20051;-70
2021/01/24 07:16:01;;;;;;;1.90;0.35;;;10.30;96.70;;;;;;5065807;28;20046;-70
2021/01/24 07:18:44;;;;;;;1.63;0.30;;;10.20;96.70;;;;;;5068359;28;20043;-70
2021/01/24 07:21:12;;;;;;;2.13;0.60;;;10.10;96.70;;;;;;5069953;28;20044;-71
2021/01/24 07:23:40;;;;;;;1.73;0.60;;;10.00;96.70;;;;;;5074675;28;20036;-70
2021/01/24 07:26:10;;;;;;;3.22;0.60;;;10.00;96.70;;;;;;5068026;28;20417;-70
2021/01/24 07:28:39;;;;;;;2.05;0.50;;;9.90;96.70;;;;;;5071518;28;20074;-70
2021/01/24 07:31:06;;;;;;;2.35;0.73;;;9.90;96.70;;;;;;5065671;28;20048;-71
2021/01/24 07:33:34;;;;;;;3.35;0.70;;;9.90;96.70;;;;;;5071516;28;20072;-70
2021/01/24 07:36:04;;;;;;;3.72;0.70;;;9.90;96.70;;;;;;5072263;28;20036;-70
2021/01/24 07:38:31;;;;;;;1.95;0.32;;;10.00;96.70;;;;;;5067877;28;20413;-70
2021/01/24 07:41:00;;;;;;;1.50;0.30;;;10.00;96.70;;;;;;5072440;28;20045;-71
2021/01/24 07:43:28;;;;;;;1.08;0.20;;;10.00;96.70;;;;;;5077796;28;20138;-70
2021/01/24 07:45:55;;;;;;;1.67;0.25;;;10.10;96.70;;;;;;5069730;28;20048;-70
2021/01/24 07:48:24;;;;;;;1.30;0.30;;;10.20;96.70;;;;;;5068389;28;20048;-71
2021/01/24 07:50:52;;;;;;;0.77;0.40;;;10.20;96.70;;;;;;5064141;28;20048;-70
2021/01/24 07:53:20;;;;;;;2.47;0.50;;;10.20;96.70;;;;;;5074359;28;20238;-70
2021/01/24 07:55:48;;;;;;;2.25;0.55;;;10.30;96.70;;;;;;5065405;28;21164;-71
2021/01/24 07:58:15;;;;;;;0.85;0.30;;;10.30;96.70;;;;;;5070502;28;20058;-70
2021/01/24 08:00:46;;;;;;;1.58;0.50;;;10.30;96.70;;;;;;5066935;28;20050;-71
2021/01/24 08:03:19;;;;;;;1.95;0.60;;;10.30;96.70;;;;;;5058838;28;20050;-70
2021/01/24 08:05:47;;;;;;;2.75;0.40;;;10.30;96.70;;;;;;5066979;28;20334;-70
2021/01/24 08:08:14;;;;;;;2.40;0.40;;;10.30;96.70;;;;;;5073605;28;20089;-70
2021/01/24 08:10:42;;;;;;;2.80;1.95;;;10.30;96.70;;;;;;5073496;28;20043;-71
2021/01/24 08:13:10;;;;;;;1.90;1.50;;;10.30;96.70;;;;;;5054578;28;20560;-71
2021/01/24 08:15:37;;;;;;;2.75;1.30;;;10.20;96.70;;;;;;5067458;28;20118;-71
2021/01/24 08:18:05;;;;;;;1.45;0.75;;;10.20;96.70;;;;;;5070656;28;20043;-71
2021/01/24 08:20:33;;;;;;;1.20;0.50;;;10.20;96.70;;;;;;5071164;28;20036;-70
2021/01/24 08:23:01;;;;;;;2.40;0.50;;;10.10;96.70;;;;;;5069625;28;20052;-71
2021/01/24 08:25:28;;;;;;;1.42;0.50;;;10.10;96.70;;;;;;5066133;28;20210;-70
2021/01/24 08:27:57;;;;;;;1.70;0.60;;;10.10;96.70;;;;;;5052133;28;20934;-70
2021/01/24 08:30:24;;;;;;;1.52;0.50;;;10.10;96.70;;;;;;5076776;28;20552;-71
2021/01/24 08:32:52;;;;;;;1.40;0.40;;;10.10;96.70;;;;;;5076848;28;20048;-70
2021/01/24 08:35:19;;;;;;;2.47;0.50;;;10.10;96.70;;;;;;5064260;28;20198;-71
2021/01/24 08:37:47;;;;;;;2.90;0.73;;;10.20;96.70;;;;;;5051618;28;20112;-70
2021/01/24 08:40:15;;;;;;;1.75;0.50;;;10.20;96.70;;;;;;5074761;28;20608;-70
2021/01/24 08:42:45;;;;;;;2.85;1.02;;;10.30;96.70;;;;;;5067722;28;20040;-70
2021/01/24 08:45:18;;;;;;;1.80;1.08;;;10.30;96.70;;;;;;5074999;28;20492;-70
2021/01/24 08:47:54;;;;;;;3.60;1.20;;;10.40;96.70;;;;;;5074529;28;20036;-70
2021/01/24 08:50:23;;;;;;;4.45;1.42;;;10.40;96.70;;;;;;5068769;28;20048;-70
2021/01/24 08:52:55;;;;;;;4.22;1.73;;;10.40;96.70;;;;;;5069324;28;20032;-70
2021/01/24 08:55:22;;;;;;;4.45;1.45;;;10.50;96.70;;;;;;5070886;28;20041;-70
2021/01/24 08:57:50;;;;;;;2.80;0.85;;;10.50;96.70;;;;;;5066257;28;20085;-70
2021/01/24 09:00:20;;;;;;;1.48;0.80;;;10.50;96.70;;;;;;5070259;28;20040;-70
2021/01/24 09:02:48;;;;;;;1.90;0.73;;;10.50;96.70;;;;;;5067143;28;20047;-73
2021/01/24 09:05:30;;;;;;;2.95;0.98;;;10.50;96.70;;;;;;5068281;28;20041;-71
2021/01/24 09:07:58;;;;;;;1.50;0.70;;;10.50;96.70;;;;;;5067092;28;20036;-70
2021/01/24 09:10:28;;;;;;;2.17;0.93;;;10.50;96.70;;;;;;5067091;28;20473;-71
2021/01/24 09:12:56;;;;;;;2.25;0.95;;;10.50;96.70;;;;;;5065400;28;20571;-71
2021/01/24 09:15:26;;;;;;;1.98;0.68;;;10.50;96.70;;;;;;5070948;28;20072;-71
2021/01/24 09:17:55;;;;;;;1.40;0.63;;;10.50;96.70;;;;;;5062976;28;20044;-70
2021/01/24 09:20:25;;;;;;;1.40;0.70;;;10.50;96.70;;;;;;5066895;28;20067;-71
2021/01/24 09:22:53;;;;;;;1.83;0.95;;;10.60;96.70;;;;;;5069146;28;20127;-71
2021/01/24 09:25:21;;;;;;;1.75;1.00;;;10.60;96.70;;;;;;5069765;28;20044;-71
2021/01/24 09:27:48;;;;;;;2.20;0.70;;;10.60;96.70;;;;;;5070782;28;20040;-70
2021/01/24 09:30:18;;;;;;;2.45;0.88;;;10.50;96.70;;;;;;5069163;28;20036;-71
2021/01/24 09:32:46;;;;;;;1.58;0.88;;;10.50;96.70;;;;;;5071967;28;20743;-71
2021/01/24 09:35:14;;;;;;;1.40;0.90;;;10.50;96.70;;;;;;5068329;28;20032;-71
2021/01/24 09:37:41;;;;;;;3.00;1.10;;;10.50;96.70;;;;;;5068543;28;21128;-71
2021/01/24 09:40:09;;;;;;;1.80;1.27;;;10.50;96.70;;;;;;5069952;28;20032;-72
2021/01/24 09:42:38;;;;;;;1.73;1.10;;;10.50;96.70;;;;;;5073501;28;20040;-71
2021/01/24 09:45:06;;;;;;;1.63;1.08;;;10.40;96.70;;;;;;5066972;28;20040;-70
2021/01/24 09:47:34;;;;;;;2.08;1.50;;;10.50;96.70;;;;;;5059472;28;20064;-70
2021/01/24 09:50:03;;;;;;;1.40;0.93;;;10.50;96.70;;;;;;5055304;28;20078;-71
2021/01/24 09:52:32;;;;;;;1.63;0.95;;;10.30;96.70;;;;;;5078631;28;20243;-70
2021/01/24 09:54:59;;;;;;;1.30;0.82;;;10.20;96.70;;;;;;5056721;28;20028;-72
2021/01/24 09:57:27;;;;;;;2.47;1.20;;;10.30;96.70;;;;;;5075236;28;20048;-72
2021/01/24 09:59:54;;;;;;;1.30;0.70;;;10.30;96.70;;;;;;5072732;28;20116;-71
2021/01/24 10:02:21;;;;;;;1.20;0.75;;;10.30;96.70;;;;;;5073129;28;20063;-72
2021/01/24 10:04:49;;;;;;;1.80;0.85;;;10.30;96.70;;;;;;5069365;28;20032;-72
2021/01/24 10:07:17;;;;;;;1.13;0.80;;;10.40;96.70;;;;;;5068266;28;20152;-72
2021/01/24 10:09:45;;;;;;;2.72;1.20;;;10.50;96.70;;;;;;5070278;28;20115;-70
2021/01/24 10:12:17;;;;;;;2.15;1.38;;;10.60;96.70;;;;;;5072535;28;20078;-70
2021/01/24 10:14:45;;;;;;;1.20;0.82;;;10.50;96.70;;;;;;5068918;28;20123;-70
2021/01/24 10:17:13;;;;;;;1.00;0.70;;;10.40;96.70;;;;;;5069438;28;20067;-71
2021/01/24 10:19:41;;;;;;;1.90;1.00;;;10.20;96.70;;;;;;5065803;28;20035;-70
2021/01/24 10:22:08;;;;;;;2.30;1.60;;;10.30;96.70;;;;;;5073990;28;20066;-71
2021/01/24 10:24:41;;;;;;;2.55;1.70;;;10.30;96.70;;;;;;5069852;28;20040;-70
2021/01/24 10:27:09;;;;;;;1.83;1.45;;;10.40;96.70;;;;;;5075415;28;20123;-70
2021/01/24 10:29:51;;;;;;;95.30;59.78;;;10.50;96.70;;;;;;5067922;28;20497;-70
2021/01/24 10:32:19;;;;;;;75.40;47.60;;;10.60;96.70;;;;;;5073441;28;20065;-71
2021/01/24 10:35:00;;;;;;;60.95;37.85;;;10.60;96.70;;;;;;5069612;28;20044;-70
2021/01/24 10:37:27;;;;;;;107.35;60.17;;;10.70;96.70;;;;;;5068356;28;20325;-71
2021/01/24 10:40:00;;;;;;;105.22;63.42;;;10.80;96.70;;;;;;5063597;28;20032;-70
2021/01/24 10:42:28;;;;;;;39.67;25.77;;;10.80;96.70;;;;;;5071747;28;20497;-70
2021/01/24 10:44:56;;;;;;;15.63;10.82;;;10.90;96.70;;;;;;5069919;28;20127;-70
2021/01/24 10:47:24;;;;;;;22.27;14.23;;;10.90;96.70;;;;;;5068810;28;20488;-71
2021/01/24 10:49:52;;;;;;;31.58;20.42;;;10.90;96.70;;;;;;5072633;28;20458;-71
2021/01/24 10:52:19;;;;;;;21.92;15.30;;;11.10;96.70;;;;;;5068805;28;20044;-72
2021/01/24 10:54:47;;;;;;;31.55;21.20;;;11.30;96.70;;;;;;5069741;28;20040;-73
2021/01/24 10:57:15;;;;;;;40.83;28.15;;;11.30;96.70;;;;;;5067662;28;20504;-71
2021/01/24 10:59:43;;;;;;;9.35;5.85;;;11.30;96.70;;;;;;5056217;28;20166;-71
2021/01/24 11:02:10;;;;;;;17.10;12.27;;;11.20;96.70;;;;;;5075831;28;20144;-71
2021/01/24 11:04:38;;;;;;;7.28;5.13;;;11.20;96.70;;;;;;5070349;28;20048;-71
2021/01/24 11:07:07;;;;;;;6.82;4.63;;;11.00;96.70;;;;;;5071262;28;20059;-72
2021/01/24 11:09:34;;;;;;;5.55;3.65;;;11.00;96.70;;;;;;5071982;28;20430;-71
2021/01/24 11:12:02;;;;;;;5.88;3.80;;;10.90;96.70;;;;;;5053999;28;20505;-72
2021/01/24 11:14:30;;;;;;;4.97;3.63;;;10.90;96.70;;;;;;5067824;28;20032;-70
2021/01/24 11:16:58;;;;;;;5.03;3.58;;;11.10;96.70;;;;;;5070213;28;20044;-70
2021/01/24 11:19:33;;;;;;;2.92;1.95;;;11.20;96.70;;;;;;5071895;28;20040;-71
2021/01/24 11:22:02;;;;;;;;;;;11.20;96.70;;;;;;5069570;28;20036;-70
2021/01/24 11:24:29;;;;;;;4.50;2.13;;;11.30;96.70;;;;;;5065006;28;20345;-69
2021/01/24 11:27:05;;;;;;;3.28;1.73;;;11.30;96.70;;;;;;5069693;28;20044;-70
2021/01/24 11:29:36;;;;;;;3.80;0.95;;;11.30;96.70;;;;;;5075129;28;20297;-70
2021/01/24 11:32:05;;;;;;;4.32;2.05;;;11.30;96.70;;;;;;5071830;28;20106;-71
2021/01/24 11:34:32;;;;;;;3.35;1.35;;;11.40;96.70;;;;;;5070194;28;20059;-70
2021/01/24 11:37:00;;;;;;;4.80;2.15;;;11.40;96.70;;;;;;5072639;28;20039;-70
2021/01/24 11:39:28;;;;;;;2.22;1.02;;;11.50;96.70;;;;;;5072178;28;20063;-70
2021/01/24 11:41:55;;;;;;;1.63;1.05;;;11.50;96.70;;;;;;5066456;28;20400;-70
2021/01/24 11:44:23;;;;;;;1.15;0.80;;;11.40;96.70;;;;;;5073677;28;20093;-70
2021/01/24 11:46:52;;;;;;;2.08;1.20;;;11.40;96.70;;;;;;5071503;28;20125;-71
2021/01/24 11:49:20;;;;;;;2.08;1.40;;;11.40;96.70;;;;;;5069762;28;20044;-70
2021/01/24 11:51:47;;;;;;;2.08;1.25;;;11.60;96.70;;;;;;5070804;28;20060;-69
2021/01/24 11:54:15;;;;;;;2.92;1.73;;;11.60;96.70;;;;;;5056009;28;20047;-71
2021/01/24 11:56:42;;;;;;;2.08;1.40;;;11.70;96.70;;;;;;5069054;28;20597;-71
2021/01/24 11:59:10;;;;;;;2.00;1.58;;;11.60;96.70;;;;;;5066114;28;20044;-73
2021/01/24 12:01:37;;;;;;;2.45;1.70;;;11.60;96.70;;;;;;5067975;28;20032;-71
2021/01/24 12:04:06;;;;;;;4.43;2.80;;;11.60;96.70;;;;;;5070147;28;20059;-70
2021/01/24 12:06:33;;;;;;;4.40;3.63;;;11.60;96.70;;;;;;5063559;28;20041;-70
2021/01/24 12:09:01;;;;;;;2.80;2.30;;;11.60;96.70;;;;;;5067402;28;20317;-71
2021/01/24 12:11:28;;;;;;;1.73;1.17;;;11.60;96.70;;;;;;5072356;28;20230;-70
2021/01/24 12:13:56;;;;;;;4.53;2.83;;;11.70;96.70;;;;;;5057026;28;20036;-70
2021/01/24 12:16:24;;;;;;;3.92;1.88;;;11.70;96.70;;;;;;5066101;28;20112;-70
2021/01/24 12:18:51;;;;;;;3.42;2.40;;;11.70;96.70;;;;;;5064942;28;20284;-70
2021/01/24 12:21:20;;;;;;;4.20;3.40;;;11.70;96.70;;;;;;5068962;28;20083;-70
2021/01/24 12:23:48;;;;;;;4.50;3.00;;;11.70;96.70;;;;;;5064857;28;20056;-71
2021/01/24 12:26:15;;;;;;;3.35;2.55;;;11.80;96.70;;;;;;5076673;28;20047;-70
2021/01/24 12:28:42;;;;;;;5.90;3.30;;;11.90;96.70;;;;;;5071778;28;20502;-70
2021/01/24 12:31:10;;;;;;;3.47;2.38;;;11.90;96.70;;;;;;5066828;28;20090;-70
2021/01/24 12:33:37;;;;;;;3.85;2.30;;;12.00;96.70;;;;;;5071783;28;20048;-71
2021/01/24 12:36:05;;;;;;;2.63;2.05;;;12.00;96.70;;;;;;5070889;28;20127;-70
2021/01/24 12:38:33;;;;;;;4.05;2.90;;;12.00;96.70;;;;;;5066252;28;20040;-70
2021/01/24 12:41:01;;;;;;;2.53;1.90;;;12.10;96.70;;;;;;5069517;28;20036;-70
2021/01/24 12:43:28;;;;;;;7.55;4.40;;;12.00;96.70;;;;;;5065068;28;20046;-70
2021/01/24 12:45:55;;;;;;;4.45;2.90;;;12.00;96.70;;;;;;5065324;28;20493;-70
2021/01/24 12:48:23;;;;;;;4.47;2.58;;;11.80;96.70;;;;;;5069174;28;20036;-70
2021/01/24 12:50:51;;;;;;;2.75;2.03;;;11.90;96.70;;;;;;5075028;28;20071;-70